sensor_id;sensor_type;location;lat;lon;timestamp;temperature;humidity
12289;DHT22;6207;49.308;7.336;2023-02-01T00:02:08;4.70;99.90
12289;DHT22;6207;49.308;7.336;2023-02-01T00:04:35;4.70;99.90
12289;DHT22;6207;49.308;7.336;2023-02-01T00:07:02;4.60;99.90
12289;DHT22;6207;49.308;7.336;2023-02-01T00:09:28;4.60;99.90
12289;DHT22;6207;49.308;7.336;2023-02-01T00:11:55;4.60;99.90
12289;DHT22;6207;49.308;7.336;2023-02-01T00:14:25;4.60;99.90
12289;DHT22;6207;49.308;7.336;2023-02-01T00:16:52;4.50;99.90
12289;DHT22;6207;49.308;7.336;2023-02-01T00:19:19;4.60;99.90
12289;DHT22;6207;49.308;7.336;2023-02-01T00:21:46;4.60;99.90
12289;DHT22;6207;49.308;7.336;2023-02-01T00:24:13;4.60;99.90
12289;DHT22;6207;49.308;7.336;2023-02-01T00:26:41;4.60;99.90
12289;DHT22;6207;49.308;7.336;2023-02-01T00:29:18;4.60;99.90
12289;DHT22;6207;49.308;7.336;2023-02-01T00:31:45;4.60;99.90
12289;DHT22;6207;49.308;7.336;2023-02-01T00:34:14;4.70;99.90
12289;DHT22;6207;49.308;7.336;2023-02-01T00:36:42;4.70;99.90
12289;DHT22;6207;49.308;7.336;2023-02-01T00:39:10;4.60;99.90
12289;DHT22;6207;49.308;7.336;2023-02-01T00:41:37;4.60;99.90
12289;DHT22;6207;49.308;7.336;2023-02-01T00:44:03;4.60;99.90
12289;DHT22;6207;49.308;7.336;2023-02-01T00:46:30;4.70;99.90
12289;DHT22;6207;49.308;7.336;2023-02-01T00:48:58;4.60;99.90
12289;DHT22;6207;49.308;7.336;2023-02-01T00:51:27;4.70;99.90
12289;DHT22;6207;49.308;7.336;2023-02-01T00:53:54;4.70;99.90
12289;DHT22;6207;49.308;7.336;2023-02-01T00:56:20;4.60;99.90
12289;DHT22;6207;49.308;7.336;2023-02-01T00:58:47;4.60;99.90
12289;DHT22;6207;49.308;7.336;2023-02-01T01:01:20;4.60;99.90
12289;DHT22;6207;49.308;7.336;2023-02-01T01:03:50;4.60;99.90
12289;DHT22;6207;49.308;7.336;2023-02-01T01:06:21;4.60;99.90
12289;DHT22;6207;49.308;7.336;2023-02-01T01:08:50;4.60;99.90
12289;DHT22;6207;49.308;7.336;2023-02-01T01:11:19;4.60;99.90
12289;DHT22;6207;49.308;7.336;2023-02-01T01:13:48;4.60;99.90
12289;DHT22;6207;49.308;7.336;2023-02-01T01:16:15;4.60;99.90
12289;DHT22;6207;49.308;7.336;2023-02-01T01:18:42;4.60;99.90
12289;DHT22;6207;49.308;7.336;2023-02-01T01:21:12;4.60;99.90
12289;DHT22;6207;49.308;7.336;2023-02-01T01:23:39;4.60;99.90
12289;DHT22;6207;49.308;7.336;2023-02-01T01:26:08;4.60;99.90
12289;DHT22;6207;49.308;7.336;2023-02-01T01:28:35;4.60;99.90
12289;DHT22;6207;49.308;7.336;2023-02-01T01:31:02;4.60;99.90
12289;DHT22;6207;49.308;7.336;2023-02-01T01:33:29;4.60;99.90
12289;DHT22;6207;49.308;7.336;2023-02-01T01:35:56;4.60;99.90
12289;DHT22;6207;49.308;7.336;2023-02-01T01:38:22;4.60;99.90
12289;DHT22;6207;49.308;7.336;2023-02-01T01:40:49;4.60;99.90
12289;DHT22;6207;49.308;7.336;2023-02-01T01:43:18;4.60;99.90
12289;DHT22;6207;49.308;7.336;2023-02-01T01:45:46;4.60;99.90
12289;DHT22;6207;49.308;7.336;2023-02-01T01:51:03;4.50;99.90
12289;DHT22;6207;49.308;7.336;2023-02-01T01:53:38;4.60;99.90
12289;DHT22;6207;49.308;7.336;2023-02-01T01:56:06;4.60;99.90
12289;DHT22;6207;49.308;7.336;2023-02-01T01:58:34;4.60;99.90
12289;DHT22;6207;49.308;7.336;2023-02-01T02:01:01;4.60;99.90
12289;DHT22;6207;49.308;7.336;2023-02-01T02:03:37;4.60;99.90
12289;DHT22;6207;49.308;7.336;2023-02-01T02:06:14;4.60;99.90
12289;DHT22;6207;49.308;7.336;2023-02-01T02:08:43;4.70;99.90
12289;DHT22;6207;49.308;7.336;2023-02-01T02:11:12;4.60;99.90
12289;DHT22;6207;49.308;7.336;2023-02-01T02:13:42;4.70;99.90
12289;DHT22;6207;49.308;7.336;2023-02-01T02:35:37;4.60;99.90
12289;DHT22;6207;49.308;7.336;2023-02-01T02:40:55;4.60;99.90
12289;DHT22;6207;49.308;7.336;2023-02-01T02:43:32;4.60;99.90
12289;DHT22;6207;49.308;7.336;2023-02-01T02:46:38;4.60;99.90
12289;DHT22;6207;49.308;7.336;2023-02-01T02:49:33;4.60;99.90
12289;DHT22;6207;49.308;7.336;2023-02-01T02:52:15;4.60;99.90
12289;DHT22;6207;49.308;7.336;2023-02-01T02:55:03;4.60;99.90
12289;DHT22;6207;49.308;7.336;2023-02-01T02:57:39;4.60;99.90
12289;DHT22;6207;49.308;7.336;2023-02-01T03:00:29;4.60;99.90
12289;DHT22;6207;49.308;7.336;2023-02-01T03:03:16;4.60;99.90
12289;DHT22;6207;49.308;7.336;2023-02-01T03:06:01;4.50;99.90
12289;DHT22;6207;49.308;7.336;2023-02-01T03:08:29;4.50;99.90
12289;DHT22;6207;49.308;7.336;2023-02-01T03:16:09;4.60;99.90
12289;DHT22;6207;49.308;7.336;2023-02-01T03:19:00;4.60;99.90
12289;DHT22;6207;49.308;7.336;2023-02-01T03:21:40;4.60;99.90
12289;DHT22;6207;49.308;7.336;2023-02-01T03:24:30;4.70;99.90
12289;DHT22;6207;49.308;7.336;2023-02-01T03:32:16;4.60;99.90
12289;DHT22;6207;49.308;7.336;2023-02-01T03:34:45;4.70;99.90
12289;DHT22;6207;49.308;7.336;2023-02-01T03:37:16;4.60;99.90
12289;DHT22;6207;49.308;7.336;2023-02-01T03:39:52;4.60;99.90
12289;DHT22;6207;49.308;7.336;2023-02-01T03:42:26;4.60;99.90
12289;DHT22;6207;49.308;7.336;2023-02-01T03:45:00;4.60;99.90
12289;DHT22;6207;49.308;7.336;2023-02-01T03:47:30;4.50;99.90
12289;DHT22;6207;49.308;7.336;2023-02-01T03:50:04;4.60;99.90
12289;DHT22;6207;49.308;7.336;2023-02-01T03:52:45;4.50;99.90
12289;DHT22;6207;49.308;7.336;2023-02-01T03:55:15;4.50;99.90
12289;DHT22;6207;49.308;7.336;2023-02-01T03:57:57;4.50;99.90
12289;DHT22;6207;49.308;7.336;2023-02-01T04:00:26;4.50;99.90
12289;DHT22;6207;49.308;7.336;2023-02-01T04:02:53;4.50;99.90
12289;DHT22;6207;49.308;7.336;2023-02-01T04:05:21;4.60;99.90
12289;DHT22;6207;49.308;7.336;2023-02-01T04:07:47;4.60;99.90
12289;DHT22;6207;49.308;7.336;2023-02-01T04:10:14;4.60;99.90
12289;DHT22;6207;49.308;7.336;2023-02-01T04:12:45;4.60;99.90
12289;DHT22;6207;49.308;7.336;2023-02-01T04:15:11;4.60;99.90
12289;DHT22;6207;49.308;7.336;2023-02-01T04:17:38;4.60;99.90
12289;DHT22;6207;49.308;7.336;2023-02-01T04:20:05;4.60;99.90
12289;DHT22;6207;49.308;7.336;2023-02-01T04:22:32;4.60;99.90
12289;DHT22;6207;49.308;7.336;2023-02-01T04:24:59;4.70;99.90
12289;DHT22;6207;49.308;7.336;2023-02-01T04:27:26;4.70;99.90
12289;DHT22;6207;49.308;7.336;2023-02-01T04:29:53;4.70;99.90
12289;DHT22;6207;49.308;7.336;2023-02-01T04:32:23;4.80;99.90
12289;DHT22;6207;49.308;7.336;2023-02-01T04:34:50;4.70;99.90
12289;DHT22;6207;49.308;7.336;2023-02-01T04:37:18;4.70;99.90
12289;DHT22;6207;49.308;7.336;2023-02-01T04:39:45;4.80;99.90
12289;DHT22;6207;49.308;7.336;2023-02-01T04:42:12;4.80;99.90
12289;DHT22;6207;49.308;7.336;2023-02-01T04:44:38;4.80;99.90
12289;DHT22;6207;49.308;7.336;2023-02-01T04:47:08;4.80;99.90
12289;DHT22;6207;49.308;7.336;2023-02-01T04:49:36;4.80;99.90
12289;DHT22;6207;49.308;7.336;2023-02-01T04:52:03;4.70;99.90
12289;DHT22;6207;49.308;7.336;2023-02-01T04:54:29;4.70;99.90
12289;DHT22;6207;49.308;7.336;2023-02-01T04:56:56;4.70;99.90
12289;DHT22;6207;49.308;7.336;2023-02-01T04:59:23;4.60;99.90
12289;DHT22;6207;49.308;7.336;2023-02-01T05:01:50;4.60;99.90
12289;DHT22;6207;49.308;7.336;2023-02-01T05:04:16;4.60;99.90
12289;DHT22;6207;49.308;7.336;2023-02-01T05:06:45;4.60;99.90
12289;DHT22;6207;49.308;7.336;2023-02-01T05:09:11;4.50;99.90
12289;DHT22;6207;49.308;7.336;2023-02-01T05:11:38;4.50;99.90
12289;DHT22;6207;49.308;7.336;2023-02-01T05:14:23;4.50;99.90
12289;DHT22;6207;49.308;7.336;2023-02-01T05:16:50;4.60;99.90
12289;DHT22;6207;49.308;7.336;2023-02-01T05:19:17;4.60;99.90
12289;DHT22;6207;49.308;7.336;2023-02-01T05:21:43;4.70;99.90
12289;DHT22;6207;49.308;7.336;2023-02-01T05:24:10;4.70;99.90
12289;DHT22;6207;49.308;7.336;2023-02-01T05:26:43;4.70;99.90
12289;DHT22;6207;49.308;7.336;2023-02-01T05:29:10;4.70;99.90
12289;DHT22;6207;49.308;7.336;2023-02-01T05:31:38;4.70;99.90
12289;DHT22;6207;49.308;7.336;2023-02-01T05:34:05;4.70;99.90
12289;DHT22;6207;49.308;7.336;2023-02-01T05:36:32;4.70;99.90
12289;DHT22;6207;49.308;7.336;2023-02-01T05:38:59;4.70;99.90
12289;DHT22;6207;49.308;7.336;2023-02-01T05:41:26;4.80;99.90
12289;DHT22;6207;49.308;7.336;2023-02-01T05:43:53;4.90;99.90
12289;DHT22;6207;49.308;7.336;2023-02-01T05:46:20;4.80;99.90
12289;DHT22;6207;49.308;7.336;2023-02-01T05:48:47;4.80;99.90
12289;DHT22;6207;49.308;7.336;2023-02-01T05:51:14;4.80;99.90
12289;DHT22;6207;49.308;7.336;2023-02-01T05:53:41;4.80;99.90
12289;DHT22;6207;49.308;7.336;2023-02-01T05:56:07;4.80;99.90
12289;DHT22;6207;49.308;7.336;2023-02-01T05:58:34;4.80;99.90
12289;DHT22;6207;49.308;7.336;2023-02-01T06:01:02;4.90;99.90
12289;DHT22;6207;49.308;7.336;2023-02-01T06:03:29;5.00;99.90
12289;DHT22;6207;49.308;7.336;2023-02-01T06:05:56;4.80;99.90
12289;DHT22;6207;49.308;7.336;2023-02-01T06:08:23;4.80;99.90
12289;DHT22;6207;49.308;7.336;2023-02-01T06:11:00;4.80;99.90
12289;DHT22;6207;49.308;7.336;2023-02-01T06:13:27;4.80;99.90
12289;DHT22;6207;49.308;7.336;2023-02-01T06:15:54;4.80;99.90
12289;DHT22;6207;49.308;7.336;2023-02-01T06:18:22;4.70;99.90
12289;DHT22;6207;49.308;7.336;2023-02-01T06:20:57;4.80;99.90
12289;DHT22;6207;49.308;7.336;2023-02-01T06:23:24;4.70;99.90
12289;DHT22;6207;49.308;7.336;2023-02-01T06:25:52;4.70;99.90
12289;DHT22;6207;49.308;7.336;2023-02-01T06:28:19;4.60;99.90
12289;DHT22;6207;49.308;7.336;2023-02-01T06:30:45;4.70;99.90
12289;DHT22;6207;49.308;7.336;2023-02-01T06:33:13;4.70;99.90
12289;DHT22;6207;49.308;7.336;2023-02-01T06:35:42;4.60;99.90
12289;DHT22;6207;49.308;7.336;2023-02-01T06:38:12;4.60;99.90
12289;DHT22;6207;49.308;7.336;2023-02-01T06:40:40;4.70;99.90
12289;DHT22;6207;49.308;7.336;2023-02-01T06:43:08;4.70;99.90
12289;DHT22;6207;49.308;7.336;2023-02-01T06:45:35;4.80;99.90
12289;DHT22;6207;49.308;7.336;2023-02-01T06:48:02;4.80;99.90
12289;DHT22;6207;49.308;7.336;2023-02-01T06:50:28;4.80;99.90
12289;DHT22;6207;49.308;7.336;2023-02-01T06:52:55;4.80;99.90
12289;DHT22;6207;49.308;7.336;2023-02-01T06:55:22;4.80;99.90
12289;DHT22;6207;49.308;7.336;2023-02-01T06:57:53;4.80;99.90
12289;DHT22;6207;49.308;7.336;2023-02-01T07:00:20;4.70;99.90
12289;DHT22;6207;49.308;7.336;2023-02-01T07:02:48;4.70;99.90
12289;DHT22;6207;49.308;7.336;2023-02-01T07:05:15;4.70;99.90
12289;DHT22;6207;49.308;7.336;2023-02-01T07:07:42;4.80;99.90
12289;DHT22;6207;49.308;7.336;2023-02-01T07:10:09;4.70;99.90
12289;DHT22;6207;49.308;7.336;2023-02-01T07:12:36;4.70;99.90
12289;DHT22;6207;49.308;7.336;2023-02-01T07:15:03;4.70;99.90
12289;DHT22;6207;49.308;7.336;2023-02-01T07:17:31;4.70;99.90
12289;DHT22;6207;49.308;7.336;2023-02-01T07:19:59;4.70;99.90
12289;DHT22;6207;49.308;7.336;2023-02-01T07:22:31;4.70;99.90
12289;DHT22;6207;49.308;7.336;2023-02-01T07:24:57;4.80;99.90
12289;DHT22;6207;49.308;7.336;2023-02-01T07:27:24;4.80;99.90
12289;DHT22;6207;49.308;7.336;2023-02-01T07:29:52;4.80;99.90
12289;DHT22;6207;49.308;7.336;2023-02-01T07:32:19;4.80;99.90
12289;DHT22;6207;49.308;7.336;2023-02-01T07:34:46;4.70;99.90
12289;DHT22;6207;49.308;7.336;2023-02-01T07:37:14;4.80;99.90
12289;DHT22;6207;49.308;7.336;2023-02-01T07:39:41;5.00;99.90
12289;DHT22;6207;49.308;7.336;2023-02-01T07:42:08;4.80;99.90
12289;DHT22;6207;49.308;7.336;2023-02-01T07:44:35;4.80;99.90
12289;DHT22;6207;49.308;7.336;2023-02-01T07:47:02;4.90;99.90
12289;DHT22;6207;49.308;7.336;2023-02-01T07:49:28;4.90;99.90
12289;DHT22;6207;49.308;7.336;2023-02-01T07:51:55;4.90;99.90
12289;DHT22;6207;49.308;7.336;2023-02-01T07:54:22;4.90;99.90
12289;DHT22;6207;49.308;7.336;2023-02-01T07:56:49;4.80;99.90
12289;DHT22;6207;49.308;7.336;2023-02-01T07:59:15;4.80;99.90
12289;DHT22;6207;49.308;7.336;2023-02-01T08:01:42;4.80;99.90
12289;DHT22;6207;49.308;7.336;2023-02-01T08:04:11;4.90;99.90
12289;DHT22;6207;49.308;7.336;2023-02-01T08:06:39;4.80;99.90
12289;DHT22;6207;49.308;7.336;2023-02-01T08:09:06;4.90;99.90
12289;DHT22;6207;49.308;7.336;2023-02-01T08:11:37;4.90;99.90
12289;DHT22;6207;49.308;7.336;2023-02-01T08:14:04;4.90;99.90
12289;DHT22;6207;49.308;7.336;2023-02-01T08:16:32;4.90;99.90
12289;DHT22;6207;49.308;7.336;2023-02-01T08:19:01;4.90;99.90
12289;DHT22;6207;49.308;7.336;2023-02-01T08:21:28;5.00;99.90
12289;DHT22;6207;49.308;7.336;2023-02-01T08:24:05;5.00;99.90
12289;DHT22;6207;49.308;7.336;2023-02-01T08:26:32;5.50;99.90
12289;DHT22;6207;49.308;7.336;2023-02-01T08:29:00;6.10;99.90
12289;DHT22;6207;49.308;7.336;2023-02-01T08:31:30;5.50;99.90
12289;DHT22;6207;49.308;7.336;2023-02-01T08:34:00;5.30;99.90
12289;DHT22;6207;49.308;7.336;2023-02-01T08:36:28;5.20;99.90
12289;DHT22;6207;49.308;7.336;2023-02-01T08:38:55;5.20;99.90
12289;DHT22;6207;49.308;7.336;2023-02-01T08:41:24;5.10;99.90
12289;DHT22;6207;49.308;7.336;2023-02-01T08:43:51;5.10;99.90
12289;DHT22;6207;49.308;7.336;2023-02-01T08:46:21;5.10;99.90
12289;DHT22;6207;49.308;7.336;2023-02-01T08:48:48;5.10;99.90
12289;DHT22;6207;49.308;7.336;2023-02-01T08:51:18;5.10;99.90
12289;DHT22;6207;49.308;7.336;2023-02-01T08:53:45;5.10;99.90
12289;DHT22;6207;49.308;7.336;2023-02-01T08:56:13;5.10;99.90
12289;DHT22;6207;49.308;7.336;2023-02-01T08:58:40;5.00;99.90
12289;DHT22;6207;49.308;7.336;2023-02-01T09:01:10;5.10;99.90
12289;DHT22;6207;49.308;7.336;2023-02-01T09:03:37;5.10;99.90
12289;DHT22;6207;49.308;7.336;2023-02-01T09:06:06;5.10;99.90
12289;DHT22;6207;49.308;7.336;2023-02-01T09:08:34;5.20;99.90
12289;DHT22;6207;49.308;7.336;2023-02-01T09:11:03;5.20;99.90
12289;DHT22;6207;49.308;7.336;2023-02-01T09:13:31;5.20;99.90
12289;DHT22;6207;49.308;7.336;2023-02-01T09:15:57;5.30;99.90
12289;DHT22;6207;49.308;7.336;2023-02-01T09:18:26;5.30;99.90
12289;DHT22;6207;49.308;7.336;2023-02-01T09:20:53;5.30;99.90
12289;DHT22;6207;49.308;7.336;2023-02-01T09:23:19;5.30;99.90
12289;DHT22;6207;49.308;7.336;2023-02-01T09:25:47;5.50;99.90
12289;DHT22;6207;49.308;7.336;2023-02-01T09:28:17;5.60;99.90
12289;DHT22;6207;49.308;7.336;2023-02-01T09:30:44;5.60;99.90
12289;DHT22;6207;49.308;7.336;2023-02-01T09:33:11;5.50;99.90
12289;DHT22;6207;49.308;7.336;2023-02-01T09:35:37;5.60;99.90
12289;DHT22;6207;49.308;7.336;2023-02-01T09:38:04;5.50;99.90
12289;DHT22;6207;49.308;7.336;2023-02-01T09:40:33;5.40;99.90
12289;DHT22;6207;49.308;7.336;2023-02-01T09:43:29;5.40;99.90
12289;DHT22;6207;49.308;7.336;2023-02-01T09:48:42;5.40;99.90
12289;DHT22;6207;49.308;7.336;2023-02-01T09:51:20;5.40;99.90
12289;DHT22;6207;49.308;7.336;2023-02-01T09:54:16;5.40;99.90
12289;DHT22;6207;49.308;7.336;2023-02-01T09:56:51;5.40;99.90
12289;DHT22;6207;49.308;7.336;2023-02-01T10:02:24;5.30;99.90
12289;DHT22;6207;49.308;7.336;2023-02-01T10:04:55;5.30;99.90
12289;DHT22;6207;49.308;7.336;2023-02-01T10:07:35;5.30;99.90
12289;DHT22;6207;49.308;7.336;2023-02-01T10:18:22;5.40;99.90
12289;DHT22;6207;49.308;7.336;2023-02-01T10:26:47;5.50;99.90
12289;DHT22;6207;49.308;7.336;2023-02-01T10:29:20;5.40;99.90
12289;DHT22;6207;49.308;7.336;2023-02-01T10:31:48;5.40;99.90
12289;DHT22;6207;49.308;7.336;2023-02-01T10:34:20;5.40;99.90
12289;DHT22;6207;49.308;7.336;2023-02-01T10:36:57;5.40;99.90
12289;DHT22;6207;49.308;7.336;2023-02-01T10:39:26;5.40;99.90
12289;DHT22;6207;49.308;7.336;2023-02-01T10:41:55;5.40;99.90
12289;DHT22;6207;49.308;7.336;2023-02-01T10:44:26;5.40;99.90
12289;DHT22;6207;49.308;7.336;2023-02-01T10:46:53;5.40;99.90
12289;DHT22;6207;49.308;7.336;2023-02-01T10:49:49;5.30;99.90
12289;DHT22;6207;49.308;7.336;2023-02-01T10:52:26;5.40;99.90
12289;DHT22;6207;49.308;7.336;2023-02-01T10:54:56;5.40;99.90
12289;DHT22;6207;49.308;7.336;2023-02-01T10:57:25;5.40;99.90
12289;DHT22;6207;49.308;7.336;2023-02-01T10:59:52;5.40;99.90
12289;DHT22;6207;49.308;7.336;2023-02-01T11:02:32;5.50;99.90
12289;DHT22;6207;49.308;7.336;2023-02-01T11:05:09;5.50;99.90
12289;DHT22;6207;49.308;7.336;2023-02-01T11:07:39;5.50;99.90
12289;DHT22;6207;49.308;7.336;2023-02-01T11:10:35;5.40;99.90
12289;DHT22;6207;49.308;7.336;2023-02-01T11:13:04;5.50;99.90
12289;DHT22;6207;49.308;7.336;2023-02-01T11:15:31;5.40;99.90
12289;DHT22;6207;49.308;7.336;2023-02-01T11:18:14;5.40;99.90
12289;DHT22;6207;49.308;7.336;2023-02-01T11:20:42;5.40;99.90
12289;DHT22;6207;49.308;7.336;2023-02-01T11:23:18;5.40;99.90
12289;DHT22;6207;49.308;7.336;2023-02-01T11:26:19;5.40;99.90
12289;DHT22;6207;49.308;7.336;2023-02-01T11:28:59;5.40;99.90
12289;DHT22;6207;49.308;7.336;2023-02-01T11:31:27;5.50;99.90
12289;DHT22;6207;49.308;7.336;2023-02-01T11:33:58;5.50;99.90
12289;DHT22;6207;49.308;7.336;2023-02-01T11:36:31;5.50;99.90
12289;DHT22;6207;49.308;7.336;2023-02-01T11:44:46;5.50;99.90
12289;DHT22;6207;49.308;7.336;2023-02-01T11:47:21;5.50;99.90
12289;DHT22;6207;49.308;7.336;2023-02-01T11:49:50;5.60;99.90
12289;DHT22;6207;49.308;7.336;2023-02-01T11:52:41;5.60;99.90
12289;DHT22;6207;49.308;7.336;2023-02-01T11:58:18;5.80;99.90
12289;DHT22;6207;49.308;7.336;2023-02-01T12:06:52;5.80;99.90
12289;DHT22;6207;49.308;7.336;2023-02-01T12:09:58;5.80;99.90
12289;DHT22;6207;49.308;7.336;2023-02-01T12:12:58;5.70;99.90
12289;DHT22;6207;49.308;7.336;2023-02-01T12:15:57;5.80;99.90
12289;DHT22;6207;49.308;7.336;2023-02-01T12:18:49;5.70;99.90
12289;DHT22;6207;49.308;7.336;2023-02-01T12:24:32;5.60;99.90
12289;DHT22;6207;49.308;7.336;2023-02-01T12:30:36;5.70;99.90
12289;DHT22;6207;49.308;7.336;2023-02-01T12:40:24;5.80;99.90
12289;DHT22;6207;49.308;7.336;2023-02-01T12:42:31;5.80;99.90
12289;DHT22;6207;49.308;7.336;2023-02-01T12:47:51;5.80;99.90
12289;DHT22;6207;49.308;7.336;2023-02-01T12:50:32;5.80;99.90
12289;DHT22;6207;49.308;7.336;2023-02-01T12:53:15;5.80;99.90
12289;DHT22;6207;49.308;7.336;2023-02-01T12:55:52;5.90;99.90
12289;DHT22;6207;49.308;7.336;2023-02-01T12:58:24;5.90;99.90
12289;DHT22;6207;49.308;7.336;2023-02-01T13:01:03;6.00;99.90
12289;DHT22;6207;49.308;7.336;2023-02-01T13:06:31;6.50;99.90
12289;DHT22;6207;49.308;7.336;2023-02-01T13:09:23;6.70;99.90
12289;DHT22;6207;49.308;7.336;2023-02-01T13:11:53;6.70;99.90
12289;DHT22;6207;49.308;7.336;2023-02-01T13:17:04;6.80;99.90
12289;DHT22;6207;49.308;7.336;2023-02-01T13:19:52;6.60;99.90
12289;DHT22;6207;49.308;7.336;2023-02-01T13:22:25;6.60;99.90
12289;DHT22;6207;49.308;7.336;2023-02-01T13:24:54;6.60;99.90
12289;DHT22;6207;49.308;7.336;2023-02-01T13:27:22;6.50;99.90
12289;DHT22;6207;49.308;7.336;2023-02-01T13:41:53;6.20;99.90
12289;DHT22;6207;49.308;7.336;2023-02-01T13:44:37;6.20;99.90
12289;DHT22;6207;49.308;7.336;2023-02-01T13:49:54;6.30;99.90
12289;DHT22;6207;49.308;7.336;2023-02-01T13:52:29;6.30;99.90
12289;DHT22;6207;49.308;7.336;2023-02-01T13:55:13;6.20;99.90
12289;DHT22;6207;49.308;7.336;2023-02-01T13:57:42;6.30;99.90
12289;DHT22;6207;49.308;7.336;2023-02-01T14:00:25;6.30;99.90
12289;DHT22;6207;49.308;7.336;2023-02-01T14:13:35;6.20;99.90
12289;DHT22;6207;49.308;7.336;2023-02-01T14:21:31;6.00;99.90
12289;DHT22;6207;49.308;7.336;2023-02-01T14:24:24;6.10;99.90
12289;DHT22;6207;49.308;7.336;2023-02-01T14:26:56;6.00;99.90
12289;DHT22;6207;49.308;7.336;2023-02-01T14:29:43;6.00;99.90
12289;DHT22;6207;49.308;7.336;2023-02-01T14:32:22;6.00;99.90
12289;DHT22;6207;49.308;7.336;2023-02-01T14:34:52;6.00;99.90
12289;DHT22;6207;49.308;7.336;2023-02-01T14:40:16;6.20;99.90
12289;DHT22;6207;49.308;7.336;2023-02-01T14:42:47;6.20;99.90
12289;DHT22;6207;49.308;7.336;2023-02-01T14:50:34;6.20;99.90
12289;DHT22;6207;49.308;7.336;2023-02-01T14:55:50;6.20;99.90
12289;DHT22;6207;49.308;7.336;2023-02-01T15:01:22;6.30;99.90
12289;DHT22;6207;49.308;7.336;2023-02-01T15:04:09;6.30;99.90
12289;DHT22;6207;49.308;7.336;2023-02-01T15:06:57;6.30;99.90
12289;DHT22;6207;49.308;7.336;2023-02-01T15:14:36;6.40;99.90
12289;DHT22;6207;49.308;7.336;2023-02-01T15:17:27;6.30;99.90
12289;DHT22;6207;49.308;7.336;2023-02-01T15:23:16;6.40;99.90
12289;DHT22;6207;49.308;7.336;2023-02-01T15:25:46;6.30;99.90
12289;DHT22;6207;49.308;7.336;2023-02-01T15:28:14;6.30;99.90
12289;DHT22;6207;49.308;7.336;2023-02-01T15:30:57;6.30;99.90
12289;DHT22;6207;49.308;7.336;2023-02-01T15:33:26;6.40;99.90
12289;DHT22;6207;49.308;7.336;2023-02-01T15:36:19;6.40;99.90
12289;DHT22;6207;49.308;7.336;2023-02-01T15:39:16;6.40;99.90
12289;DHT22;6207;49.308;7.336;2023-02-01T15:41:47;6.30;99.90
12289;DHT22;6207;49.308;7.336;2023-02-01T15:44:44;6.30;99.90
12289;DHT22;6207;49.308;7.336;2023-02-01T15:47:25;6.30;99.90
12289;DHT22;6207;49.308;7.336;2023-02-01T15:49:54;6.30;99.90
12289;DHT22;6207;49.308;7.336;2023-02-01T15:52:35;6.30;99.90
12289;DHT22;6207;49.308;7.336;2023-02-01T15:55:08;6.30;99.90
12289;DHT22;6207;49.308;7.336;2023-02-01T15:57:44;6.30;99.90
12289;DHT22;6207;49.308;7.336;2023-02-01T16:00:24;6.30;99.90
12289;DHT22;6207;49.308;7.336;2023-02-01T16:03:15;6.30;99.90
12289;DHT22;6207;49.308;7.336;2023-02-01T16:05:59;6.30;99.90
12289;DHT22;6207;49.308;7.336;2023-02-01T16:08:29;6.20;99.90
12289;DHT22;6207;49.308;7.336;2023-02-01T16:11:19;6.00;99.90
12289;DHT22;6207;49.308;7.336;2023-02-01T16:13:47;6.10;99.90
12289;DHT22;6207;49.308;7.336;2023-02-01T16:16:13;6.10;99.90
12289;DHT22;6207;49.308;7.336;2023-02-01T16:18:41;6.20;99.90
12289;DHT22;6207;49.308;7.336;2023-02-01T16:21:08;6.10;99.90
12289;DHT22;6207;49.308;7.336;2023-02-01T16:23:36;6.00;99.90
12289;DHT22;6207;49.308;7.336;2023-02-01T16:26:06;6.10;99.90
12289;DHT22;6207;49.308;7.336;2023-02-01T16:28:33;6.10;99.90
12289;DHT22;6207;49.308;7.336;2023-02-01T16:31:00;6.00;99.90
12289;DHT22;6207;49.308;7.336;2023-02-01T16:33:28;6.10;99.90
12289;DHT22;6207;49.308;7.336;2023-02-01T16:35:56;6.10;99.90
12289;DHT22;6207;49.308;7.336;2023-02-01T16:38:26;6.10;99.90
12289;DHT22;6207;49.308;7.336;2023-02-01T16:40:58;6.00;99.90
12289;DHT22;6207;49.308;7.336;2023-02-01T16:43:25;6.10;99.90
12289;DHT22;6207;49.308;7.336;2023-02-01T16:45:54;6.00;99.90
12289;DHT22;6207;49.308;7.336;2023-02-01T16:48:25;6.00;99.90
12289;DHT22;6207;49.308;7.336;2023-02-01T16:51:04;5.90;99.90
12289;DHT22;6207;49.308;7.336;2023-02-01T16:53:35;5.90;99.90
12289;DHT22;6207;49.308;7.336;2023-02-01T16:56:23;5.90;99.90
12289;DHT22;6207;49.308;7.336;2023-02-01T16:58:52;5.90;99.90
12289;DHT22;6207;49.308;7.336;2023-02-01T17:01:21;5.90;99.90
12289;DHT22;6207;49.308;7.336;2023-02-01T17:03:47;5.90;99.90
12289;DHT22;6207;49.308;7.336;2023-02-01T17:06:19;5.80;99.90
12289;DHT22;6207;49.308;7.336;2023-02-01T17:08:50;5.80;99.90
12289;DHT22;6207;49.308;7.336;2023-02-01T17:11:18;5.80;99.90
12289;DHT22;6207;49.308;7.336;2023-02-01T17:13:45;5.80;99.90
12289;DHT22;6207;49.308;7.336;2023-02-01T17:18:47;5.70;99.90
12289;DHT22;6207;49.308;7.336;2023-02-01T17:21:17;5.70;99.90
12289;DHT22;6207;49.308;7.336;2023-02-01T17:23:43;5.70;99.90
12289;DHT22;6207;49.308;7.336;2023-02-01T17:26:11;5.70;99.90
12289;DHT22;6207;49.308;7.336;2023-02-01T17:28:38;6.00;99.90
12289;DHT22;6207;49.308;7.336;2023-02-01T17:31:05;5.70;99.90
12289;DHT22;6207;49.308;7.336;2023-02-01T17:33:34;5.70;99.90
12289;DHT22;6207;49.308;7.336;2023-02-01T17:36:03;5.70;99.90
12289;DHT22;6207;49.308;7.336;2023-02-01T17:38:32;5.70;99.90
12289;DHT22;6207;49.308;7.336;2023-02-01T17:41:00;5.90;99.90
12289;DHT22;6207;49.308;7.336;2023-02-01T17:43:27;5.70;99.90
12289;DHT22;6207;49.308;7.336;2023-02-01T17:48:29;6.00;99.90
12289;DHT22;6207;49.308;7.336;2023-02-01T17:50:56;5.60;99.90
12289;DHT22;6207;49.308;7.336;2023-02-01T17:53:27;5.70;99.90
12289;DHT22;6207;49.308;7.336;2023-02-01T17:55:54;5.50;99.90
12289;DHT22;6207;49.308;7.336;2023-02-01T17:58:24;5.50;99.90
12289;DHT22;6207;49.308;7.336;2023-02-01T18:00:52;5.50;99.90
12289;DHT22;6207;49.308;7.336;2023-02-01T18:03:28;5.60;99.90
12289;DHT22;6207;49.308;7.336;2023-02-01T18:05:56;5.60;99.90
12289;DHT22;6207;49.308;7.336;2023-02-01T18:08:26;5.90;99.90
12289;DHT22;6207;49.308;7.336;2023-02-01T18:10:58;5.60;99.90
12289;DHT22;6207;49.308;7.336;2023-02-01T18:13:27;5.60;99.90
12289;DHT22;6207;49.308;7.336;2023-02-01T18:15:54;5.70;99.90
12289;DHT22;6207;49.308;7.336;2023-02-01T18:18:21;5.60;99.90
12289;DHT22;6207;49.308;7.336;2023-02-01T18:20:48;5.60;99.90
12289;DHT22;6207;49.308;7.336;2023-02-01T18:23:21;5.60;99.90
12289;DHT22;6207;49.308;7.336;2023-02-01T18:25:50;5.50;99.90
12289;DHT22;6207;49.308;7.336;2023-02-01T18:28:20;5.90;99.90
12289;DHT22;6207;49.308;7.336;2023-02-01T18:30:48;5.60;99.90
12289;DHT22;6207;49.308;7.336;2023-02-01T18:33:19;5.60;99.90
12289;DHT22;6207;49.308;7.336;2023-02-01T18:35:49;5.90;99.90
12289;DHT22;6207;49.308;7.336;2023-02-01T18:38:15;5.70;99.90
12289;DHT22;6207;49.308;7.336;2023-02-01T18:40:51;6.10;99.90
12289;DHT22;6207;49.308;7.336;2023-02-01T18:43:19;5.70;99.90
12289;DHT22;6207;49.308;7.336;2023-02-01T18:45:46;5.70;99.90
12289;DHT22;6207;49.308;7.336;2023-02-01T18:48:15;5.80;99.90
12289;DHT22;6207;49.308;7.336;2023-02-01T18:50:44;5.80;99.90
12289;DHT22;6207;49.308;7.336;2023-02-01T18:53:18;5.80;99.90
12289;DHT22;6207;49.308;7.336;2023-02-01T18:55:49;5.80;99.90
12289;DHT22;6207;49.308;7.336;2023-02-01T18:58:21;6.00;99.90
12289;DHT22;6207;49.308;7.336;2023-02-01T19:00:56;5.90;99.90